Main page
METAR-TAF:

METAR-TAF

Airports :

Begumpet Airport

Hyderabad, India

latitude: 17-27N, longitude: 078-28E, elevation: 530 m

Current weather observation

The report was made 1 hour and 41 minutes ago, at 16:00 UTC
Wind 5 kt from the Southeast
Temperature 30°C
Humidity 55%
Pressure 1016 hPa
Visibility: 6000 m
Scattered clouds at a height of 2000 ft

METAR: VOHY 221600Z 13005KT 6000 SCT020 30/20 Q1016 NOSIG

Time: 23:11 (17:41 UTC)

Forecast

The report was made 6 hours and 41 minutes ago, at 11:00 UTC
Forecast valid from 22 at 12 UTC to 22 at 21 UTC
Wind 5 kt from variable directions
Visibility: 6000 m
Scattered clouds at a height of 2000 ft

TAF: VOHY 221100Z 2212/2221 VRB05KT 6000 SCT020

Weather observations and forecasts of more than 4000 airports (METAR and TAF reports).

The available stations are represented by yellow and red dots on the map.

Hover mouse over dot to see the name of the station.

Then click to see weather observations and forecasts.

To change the map : click on the green buttons with a black cross to zoom in, on the green button with a dash to zoom out, or on the green arrows for adjacent maps.


METAR-TAF: